createdAt,value
2022-11-06T00:02:13.547Z,4.19
2022-11-06T00:11:47.514Z,4.19
2022-11-06T00:30:59.107Z,4.19
2022-11-06T00:40:35.271Z,4.19
2022-11-06T00:50:11.652Z,4.19
2022-11-06T00:59:48.543Z,4.19
2022-11-06T01:19:02.943Z,4.19
2022-11-06T01:28:39.664Z,4.19
2022-11-06T01:38:16.908Z,4.19
2022-11-06T01:47:53.411Z,4.19
2022-11-06T02:07:06.472Z,4.19
2022-11-06T02:16:43.183Z,4.19
2022-11-06T02:26:20.080Z,4.19
2022-11-06T02:35:56.512Z,4.19
2022-11-06T02:45:33.325Z,4.19
2022-11-06T02:55:09.863Z,4.19
2022-11-06T03:04:46.600Z,4.19
2022-11-06T03:14:23.490Z,4.18
2022-11-06T03:23:59.636Z,4.18
2022-11-06T03:33:35.935Z,4.18
2022-11-06T03:43:12.595Z,4.18
2022-11-06T04:02:26.335Z,4.18
2022-11-06T04:12:02.659Z,4.18
2022-11-06T04:21:38.661Z,4.18
2022-11-06T04:31:15.279Z,4.18
2022-11-06T05:00:05.101Z,4.18
2022-11-06T05:09:41.479Z,4.18
2022-11-06T05:19:18.067Z,4.17
2022-11-06T05:28:55.018Z,4.17
2022-11-06T05:38:31.435Z,4.18
2022-11-06T05:48:08.530Z,4.17
2022-11-06T05:57:44.851Z,4.17
2022-11-06T06:07:21.970Z,4.17
2022-11-06T06:16:58.577Z,4.16
2022-11-06T06:26:35.309Z,4.16
2022-11-06T06:36:11.898Z,4.18
2022-11-06T06:45:48.443Z,4.17
2022-11-06T06:55:25.470Z,4.17
2022-11-06T07:05:02.851Z,4.17
2022-11-06T07:14:40.055Z,4.17
2022-11-06T07:24:17.663Z,4.18
2022-11-06T07:33:55.139Z,4.17
2022-11-06T07:43:32.628Z,4.17
2022-11-06T07:53:09.918Z,4.17
2022-11-06T08:02:46.838Z,4.17
2022-11-06T08:12:23.938Z,4.18
2022-11-06T08:31:39.935Z,4.18
2022-11-06T08:41:17.350Z,4.17
2022-11-06T08:50:54.731Z,4.18
2022-11-06T09:10:09.465Z,4.18
2022-11-06T09:19:46.989Z,4.18
2022-11-06T09:29:24.846Z,4.18
2022-11-06T10:27:08.335Z,4.18
2022-11-06T10:36:49.836Z,4.18
2022-11-06T10:46:24.405Z,4.18
2022-11-06T11:06:23.072Z,4.29
2022-11-06T11:16:08.148Z,4.29
2022-11-06T11:25:47.610Z,4.29
2022-11-06T11:44:30.217Z,4.22
2022-11-06T12:03:26.691Z,4.21
2022-11-06T12:13:01.786Z,4.21
2022-11-06T12:22:38.241Z,4.21
2022-11-06T12:32:16.306Z,4.21
2022-11-06T12:42:17.437Z,4.29
2022-11-06T12:52:13.903Z,4.29
2022-11-06T13:01:56.335Z,4.29
2022-11-06T13:21:14.377Z,4.29
2022-11-06T13:30:50.913Z,4.29
2022-11-06T13:40:24.568Z,4.28
2022-11-06T13:59:28.586Z,4.27
2022-11-06T14:09:01.899Z,4.26
2022-11-06T14:18:29.233Z,4.23
2022-11-06T14:37:33.889Z,4.22
2022-11-06T14:47:06.663Z,4.22
2022-11-06T14:56:41.332Z,4.21
2022-11-06T15:15:52.204Z,4.21
2022-11-06T15:25:28.013Z,4.21
2022-11-06T15:35:03.605Z,4.21
2022-11-06T15:54:16.131Z,4.21
2022-11-06T16:03:52.766Z,4.21
2022-11-06T16:13:29.460Z,4.21
2022-11-06T16:23:06.465Z,4.21
2022-11-06T16:32:42.938Z,4.21
2022-11-06T16:42:18.181Z,4.21
2022-11-06T16:51:54.619Z,4.21
2022-11-06T17:01:31.511Z,4.2
2022-11-06T17:11:08.606Z,4.2
2022-11-06T17:20:45.112Z,4.2
2022-11-06T17:30:22.358Z,4.2
2022-11-06T17:49:35.859Z,4.2
2022-11-06T17:59:12.254Z,4.2
2022-11-06T18:08:48.933Z,4.2
2022-11-06T18:18:25.716Z,4.2
2022-11-06T18:28:03.744Z,4.2
2022-11-06T18:37:39.323Z,4.2
2022-11-06T18:47:16.302Z,4.2
2022-11-06T18:56:53.661Z,4.2
2022-11-06T19:06:31.236Z,4.2
2022-11-06T19:16:08.359Z,4.2
2022-11-06T19:45:00.166Z,4.2
2022-11-06T20:04:13.744Z,4.2
2022-11-06T20:13:50.741Z,4.2
2022-11-06T20:42:42.804Z,4.2
2022-11-06T20:52:19.693Z,4.2
2022-11-06T21:01:57.109Z,4.2
2022-11-06T21:21:11.145Z,4.2
2022-11-06T21:30:47.679Z,4.2
2022-11-06T21:40:24.741Z,4.2
2022-11-06T21:59:41.556Z,4.2
2022-11-06T22:09:17.455Z,4.2
2022-11-06T22:18:52.602Z,4.2
2022-11-06T22:28:29.615Z,4.2
2022-11-06T22:38:06.506Z,4.2
2022-11-06T22:57:20.738Z,4.2
2022-11-06T23:06:57.260Z,4.19
2022-11-06T23:16:34.278Z,4.19
2022-11-06T23:26:10.870Z,4.19
2022-11-06T23:35:47.129Z,4.19
2022-11-06T23:45:24.136Z,4.19
2022-11-06T23:55:01.573Z,4.19
